sensor_id;sensor_type;location;lat;lon;timestamp;P1;durP1;ratioP1;P2;durP2;ratioP2
45887;SDS011;31595;51.418;7.572;2022-08-25T00:02:10;4.82;;;3.47;;
45887;SDS011;31595;51.418;7.572;2022-08-25T00:04:37;5.22;;;3.40;;
45887;SDS011;31595;51.418;7.572;2022-08-25T00:07:05;4.50;;;3.53;;
45887;SDS011;31595;51.418;7.572;2022-08-25T00:09:33;5.45;;;3.67;;
45887;SDS011;31595;51.418;7.572;2022-08-25T00:12:01;7.60;;;3.42;;
45887;SDS011;31595;51.418;7.572;2022-08-25T00:14:30;5.07;;;3.60;;
45887;SDS011;31595;51.418;7.572;2022-08-25T00:17:01;4.95;;;3.65;;
45887;SDS011;31595;51.418;7.572;2022-08-25T00:19:34;4.90;;;3.65;;
45887;SDS011;31595;51.418;7.572;2022-08-25T00:22:03;5.15;;;3.35;;
45887;SDS011;31595;51.418;7.572;2022-08-25T00:24:34;4.13;;;3.25;;
45887;SDS011;31595;51.418;7.572;2022-08-25T00:27:02;5.40;;;3.65;;
45887;SDS011;31595;51.418;7.572;2022-08-25T00:29:31;3.77;;;3.37;;
45887;SDS011;31595;51.418;7.572;2022-08-25T00:32:04;4.25;;;3.53;;
45887;SDS011;31595;51.418;7.572;2022-08-25T00:34:33;4.75;;;3.50;;
45887;SDS011;31595;51.418;7.572;2022-08-25T00:37:02;3.88;;;3.30;;
45887;SDS011;31595;51.418;7.572;2022-08-25T00:39:35;4.57;;;3.25;;
45887;SDS011;31595;51.418;7.572;2022-08-25T00:42:04;6.07;;;3.50;;
45887;SDS011;31595;51.418;7.572;2022-08-25T00:44:35;3.97;;;3.55;;
45887;SDS011;31595;51.418;7.572;2022-08-25T00:47:04;6.00;;;3.63;;
45887;SDS011;31595;51.418;7.572;2022-08-25T00:49:34;6.10;;;3.70;;
45887;SDS011;31595;51.418;7.572;2022-08-25T00:52:05;4.55;;;3.30;;
45887;SDS011;31595;51.418;7.572;2022-08-25T00:54:38;4.90;;;3.38;;
45887;SDS011;31595;51.418;7.572;2022-08-25T00:57:08;5.78;;;3.40;;
45887;SDS011;31595;51.418;7.572;2022-08-25T00:59:41;3.88;;;3.00;;
45887;SDS011;31595;51.418;7.572;2022-08-25T01:02:11;5.20;;;3.17;;
45887;SDS011;31595;51.418;7.572;2022-08-25T01:04:41;4.88;;;2.92;;
45887;SDS011;31595;51.418;7.572;2022-08-25T01:07:09;5.60;;;3.28;;
45887;SDS011;31595;51.418;7.572;2022-08-25T01:09:37;4.50;;;3.15;;
45887;SDS011;31595;51.418;7.572;2022-08-25T01:12:04;5.90;;;3.25;;
45887;SDS011;31595;51.418;7.572;2022-08-25T01:14:32;4.35;;;3.25;;
45887;SDS011;31595;51.418;7.572;2022-08-25T01:17:01;7.23;;;3.27;;
45887;SDS011;31595;51.418;7.572;2022-08-25T01:19:33;4.15;;;3.33;;
45887;SDS011;31595;51.418;7.572;2022-08-25T01:22:01;4.10;;;3.20;;
45887;SDS011;31595;51.418;7.572;2022-08-25T01:24:32;7.35;;;3.20;;
45887;SDS011;31595;51.418;7.572;2022-08-25T01:27:04;3.95;;;3.35;;
45887;SDS011;31595;51.418;7.572;2022-08-25T01:29:33;4.45;;;3.15;;
45887;SDS011;31595;51.418;7.572;2022-08-25T01:32:02;5.63;;;3.22;;
45887;SDS011;31595;51.418;7.572;2022-08-25T01:34:35;5.65;;;3.40;;
45887;SDS011;31595;51.418;7.572;2022-08-25T01:37:07;6.07;;;3.33;;
45887;SDS011;31595;51.418;7.572;2022-08-25T01:39:35;3.85;;;3.13;;
45887;SDS011;31595;51.418;7.572;2022-08-25T01:42:16;3.60;;;3.20;;
45887;SDS011;31595;51.418;7.572;2022-08-25T01:44:49;4.03;;;3.25;;
45887;SDS011;31595;51.418;7.572;2022-08-25T01:47:19;4.93;;;3.40;;
45887;SDS011;31595;51.418;7.572;2022-08-25T01:49:47;6.85;;;3.28;;
45887;SDS011;31595;51.418;7.572;2022-08-25T01:52:31;6.00;;;3.53;;
45887;SDS011;31595;51.418;7.572;2022-08-25T01:55:03;6.60;;;3.17;;
45887;SDS011;31595;51.418;7.572;2022-08-25T01:57:31;4.00;;;3.10;;
45887;SDS011;31595;51.418;7.572;2022-08-25T01:59:59;6.57;;;4.00;;
45887;SDS011;31595;51.418;7.572;2022-08-25T02:02:26;4.95;;;3.65;;
45887;SDS011;31595;51.418;7.572;2022-08-25T02:04:54;4.78;;;3.10;;
45887;SDS011;31595;51.418;7.572;2022-08-25T02:07:23;4.18;;;3.35;;
45887;SDS011;31595;51.418;7.572;2022-08-25T02:09:50;5.65;;;3.60;;
45887;SDS011;31595;51.418;7.572;2022-08-25T02:12:17;4.43;;;3.60;;
45887;SDS011;31595;51.418;7.572;2022-08-25T02:14:44;5.65;;;3.00;;
45887;SDS011;31595;51.418;7.572;2022-08-25T02:17:13;5.03;;;3.08;;
45887;SDS011;31595;51.418;7.572;2022-08-25T02:19:41;4.40;;;3.50;;
45887;SDS011;31595;51.418;7.572;2022-08-25T02:22:09;4.95;;;3.35;;
45887;SDS011;31595;51.418;7.572;2022-08-25T02:24:37;6.18;;;3.30;;
45887;SDS011;31595;51.418;7.572;2022-08-25T02:27:04;4.37;;;3.23;;
45887;SDS011;31595;51.418;7.572;2022-08-25T02:29:32;3.88;;;3.00;;
45887;SDS011;31595;51.418;7.572;2022-08-25T02:32:00;6.57;;;3.30;;
45887;SDS011;31595;51.418;7.572;2022-08-25T02:34:28;5.60;;;3.00;;
45887;SDS011;31595;51.418;7.572;2022-08-25T02:36:55;4.35;;;3.35;;
45887;SDS011;31595;51.418;7.572;2022-08-25T02:39:22;6.05;;;3.42;;
45887;SDS011;31595;51.418;7.572;2022-08-25T02:41:51;5.80;;;3.92;;
45887;SDS011;31595;51.418;7.572;2022-08-25T02:44:18;3.63;;;3.33;;
45887;SDS011;31595;51.418;7.572;2022-08-25T02:46:46;5.05;;;3.38;;
45887;SDS011;31595;51.418;7.572;2022-08-25T02:49:13;3.65;;;3.10;;
45887;SDS011;31595;51.418;7.572;2022-08-25T02:51:41;4.05;;;3.20;;
45887;SDS011;31595;51.418;7.572;2022-08-25T02:54:08;3.50;;;3.13;;
45887;SDS011;31595;51.418;7.572;2022-08-25T02:56:36;5.13;;;3.58;;
45887;SDS011;31595;51.418;7.572;2022-08-25T02:59:05;4.97;;;3.70;;
45887;SDS011;31595;51.418;7.572;2022-08-25T03:01:32;3.45;;;3.15;;
45887;SDS011;31595;51.418;7.572;2022-08-25T03:04:00;4.85;;;3.15;;
45887;SDS011;31595;51.418;7.572;2022-08-25T03:06:28;4.93;;;3.30;;
45887;SDS011;31595;51.418;7.572;2022-08-25T03:08:55;4.85;;;3.70;;
45887;SDS011;31595;51.418;7.572;2022-08-25T03:11:23;3.78;;;3.38;;
45887;SDS011;31595;51.418;7.572;2022-08-25T03:13:51;5.90;;;3.60;;
45887;SDS011;31595;51.418;7.572;2022-08-25T03:16:20;4.22;;;3.83;;
45887;SDS011;31595;51.418;7.572;2022-08-25T03:18:47;4.28;;;3.42;;
45887;SDS011;31595;51.418;7.572;2022-08-25T03:21:15;4.40;;;3.83;;
45887;SDS011;31595;51.418;7.572;2022-08-25T03:23:43;4.85;;;3.92;;
45887;SDS011;31595;51.418;7.572;2022-08-25T03:26:11;5.40;;;4.47;;
45887;SDS011;31595;51.418;7.572;2022-08-25T03:29:07;5.70;;;4.10;;
45887;SDS011;31595;51.418;7.572;2022-08-25T03:31:36;4.72;;;3.70;;
45887;SDS011;31595;51.418;7.572;2022-08-25T03:34:04;5.28;;;3.78;;
45887;SDS011;31595;51.418;7.572;2022-08-25T03:36:31;4.07;;;3.58;;
45887;SDS011;31595;51.418;7.572;2022-08-25T03:38:59;5.13;;;3.80;;
45887;SDS011;31595;51.418;7.572;2022-08-25T03:41:27;7.97;;;3.90;;
45887;SDS011;31595;51.418;7.572;2022-08-25T03:43:57;4.25;;;3.75;;
45887;SDS011;31595;51.418;7.572;2022-08-25T03:46:25;7.43;;;4.10;;
45887;SDS011;31595;51.418;7.572;2022-08-25T03:48:55;5.53;;;3.92;;
45887;SDS011;31595;51.418;7.572;2022-08-25T03:51:24;5.82;;;3.92;;
45887;SDS011;31595;51.418;7.572;2022-08-25T03:53:53;5.68;;;3.97;;
45887;SDS011;31595;51.418;7.572;2022-08-25T03:56:21;5.55;;;3.80;;
45887;SDS011;31595;51.418;7.572;2022-08-25T03:58:48;6.05;;;3.70;;
45887;SDS011;31595;51.418;7.572;2022-08-25T04:01:16;5.85;;;3.55;;
45887;SDS011;31595;51.418;7.572;2022-08-25T04:03:44;4.57;;;3.85;;
45887;SDS011;31595;51.418;7.572;2022-08-25T04:06:14;5.38;;;4.00;;
45887;SDS011;31595;51.418;7.572;2022-08-25T04:08:42;4.00;;;3.60;;
45887;SDS011;31595;51.418;7.572;2022-08-25T04:11:12;4.13;;;3.58;;
45887;SDS011;31595;51.418;7.572;2022-08-25T04:13:42;8.20;;;4.55;;
45887;SDS011;31595;51.418;7.572;2022-08-25T04:16:11;4.93;;;4.05;;
45887;SDS011;31595;51.418;7.572;2022-08-25T04:18:40;8.30;;;4.35;;
45887;SDS011;31595;51.418;7.572;2022-08-25T04:21:08;5.57;;;3.92;;
45887;SDS011;31595;51.418;7.572;2022-08-25T04:26:09;4.70;;;4.20;;
45887;SDS011;31595;51.418;7.572;2022-08-25T04:28:37;7.50;;;4.05;;
45887;SDS011;31595;51.418;7.572;2022-08-25T04:31:06;5.80;;;3.80;;
45887;SDS011;31595;51.418;7.572;2022-08-25T04:33:34;5.78;;;3.95;;
45887;SDS011;31595;51.418;7.572;2022-08-25T04:36:03;5.72;;;4.63;;
45887;SDS011;31595;51.418;7.572;2022-08-25T04:38:32;8.35;;;4.00;;
45887;SDS011;31595;51.418;7.572;2022-08-25T04:41:01;5.15;;;4.20;;
45887;SDS011;31595;51.418;7.572;2022-08-25T04:43:31;6.75;;;4.50;;
45887;SDS011;31595;51.418;7.572;2022-08-25T04:46:03;5.63;;;4.70;;
45887;SDS011;31595;51.418;7.572;2022-08-25T04:48:32;10.35;;;4.70;;
45887;SDS011;31595;51.418;7.572;2022-08-25T04:51:02;6.57;;;4.30;;
45887;SDS011;31595;51.418;7.572;2022-08-25T04:53:31;7.15;;;4.38;;
45887;SDS011;31595;51.418;7.572;2022-08-25T04:55:59;5.72;;;4.68;;
45887;SDS011;31595;51.418;7.572;2022-08-25T04:58:28;5.13;;;4.60;;
45887;SDS011;31595;51.418;7.572;2022-08-25T05:01:00;5.90;;;4.40;;
45887;SDS011;31595;51.418;7.572;2022-08-25T05:03:28;6.22;;;4.43;;
45887;SDS011;31595;51.418;7.572;2022-08-25T05:05:56;5.15;;;4.50;;
45887;SDS011;31595;51.418;7.572;2022-08-25T05:08:24;4.90;;;4.22;;
45887;SDS011;31595;51.418;7.572;2022-08-25T05:10:51;5.97;;;4.68;;
45887;SDS011;31595;51.418;7.572;2022-08-25T05:13:23;9.57;;;5.40;;
45887;SDS011;31595;51.418;7.572;2022-08-25T05:15:52;5.07;;;4.20;;
45887;SDS011;31595;51.418;7.572;2022-08-25T05:18:21;5.88;;;4.93;;
45887;SDS011;31595;51.418;7.572;2022-08-25T05:20:49;8.32;;;5.13;;
45887;SDS011;31595;51.418;7.572;2022-08-25T05:23:18;5.20;;;4.68;;
45887;SDS011;31595;51.418;7.572;2022-08-25T05:25:46;8.00;;;5.53;;
45887;SDS011;31595;51.418;7.572;2022-08-25T05:28:15;7.57;;;5.63;;
45887;SDS011;31595;51.418;7.572;2022-08-25T05:30:44;8.02;;;5.13;;
45887;SDS011;31595;51.418;7.572;2022-08-25T05:33:14;13.98;;;5.70;;
45887;SDS011;31595;51.418;7.572;2022-08-25T05:35:41;8.27;;;5.40;;
45887;SDS011;31595;51.418;7.572;2022-08-25T05:38:09;10.45;;;5.85;;
45887;SDS011;31595;51.418;7.572;2022-08-25T05:40:36;7.28;;;5.07;;
45887;SDS011;31595;51.418;7.572;2022-08-25T05:43:04;7.78;;;4.63;;
45887;SDS011;31595;51.418;7.572;2022-08-25T05:45:31;7.88;;;4.85;;
45887;SDS011;31595;51.418;7.572;2022-08-25T05:48:00;8.23;;;4.25;;
45887;SDS011;31595;51.418;7.572;2022-08-25T05:50:27;8.95;;;4.47;;
45887;SDS011;31595;51.418;7.572;2022-08-25T05:52:55;5.05;;;4.45;;
45887;SDS011;31595;51.418;7.572;2022-08-25T05:55:22;8.10;;;4.72;;
45887;SDS011;31595;51.418;7.572;2022-08-25T05:57:49;5.63;;;4.03;;
45887;SDS011;31595;51.418;7.572;2022-08-25T06:00:17;7.25;;;4.38;;
45887;SDS011;31595;51.418;7.572;2022-08-25T06:02:44;7.95;;;4.50;;
45887;SDS011;31595;51.418;7.572;2022-08-25T06:05:15;7.78;;;4.60;;
45887;SDS011;31595;51.418;7.572;2022-08-25T06:07:44;6.88;;;5.05;;
45887;SDS011;31595;51.418;7.572;2022-08-25T06:10:12;5.50;;;4.82;;
45887;SDS011;31595;51.418;7.572;2022-08-25T06:12:42;7.30;;;4.87;;
45887;SDS011;31595;51.418;7.572;2022-08-25T06:15:10;7.00;;;4.80;;
45887;SDS011;31595;51.418;7.572;2022-08-25T06:17:39;6.05;;;4.63;;
45887;SDS011;31595;51.418;7.572;2022-08-25T06:20:08;5.90;;;4.50;;
45887;SDS011;31595;51.418;7.572;2022-08-25T06:22:38;6.93;;;4.65;;
45887;SDS011;31595;51.418;7.572;2022-08-25T06:25:07;5.93;;;4.57;;
45887;SDS011;31595;51.418;7.572;2022-08-25T06:27:35;9.18;;;4.68;;
45887;SDS011;31595;51.418;7.572;2022-08-25T06:30:03;6.38;;;4.40;;
45887;SDS011;31595;51.418;7.572;2022-08-25T06:32:33;8.10;;;4.70;;
45887;SDS011;31595;51.418;7.572;2022-08-25T06:37:29;6.35;;;4.55;;
45887;SDS011;31595;51.418;7.572;2022-08-25T06:39:58;8.70;;;5.53;;
45887;SDS011;31595;51.418;7.572;2022-08-25T06:42:25;8.02;;;5.47;;
45887;SDS011;31595;51.418;7.572;2022-08-25T06:44:53;7.43;;;5.22;;
45887;SDS011;31595;51.418;7.572;2022-08-25T06:47:20;8.52;;;5.32;;
45887;SDS011;31595;51.418;7.572;2022-08-25T06:49:48;11.60;;;6.25;;
45887;SDS011;31595;51.418;7.572;2022-08-25T06:52:15;6.40;;;5.40;;
45887;SDS011;31595;51.418;7.572;2022-08-25T06:54:42;10.40;;;5.88;;
45887;SDS011;31595;51.418;7.572;2022-08-25T06:57:11;6.90;;;5.43;;
45887;SDS011;31595;51.418;7.572;2022-08-25T06:59:38;12.77;;;5.65;;
45887;SDS011;31595;51.418;7.572;2022-08-25T07:02:07;15.98;;;6.57;;
45887;SDS011;31595;51.418;7.572;2022-08-25T07:04:35;7.45;;;5.63;;
45887;SDS011;31595;51.418;7.572;2022-08-25T07:07:02;6.43;;;4.93;;
45887;SDS011;31595;51.418;7.572;2022-08-25T07:09:30;8.20;;;4.82;;
45887;SDS011;31595;51.418;7.572;2022-08-25T07:11:57;8.25;;;4.53;;
45887;SDS011;31595;51.418;7.572;2022-08-25T07:14:26;6.97;;;4.95;;
45887;SDS011;31595;51.418;7.572;2022-08-25T07:16:54;7.13;;;4.55;;
45887;SDS011;31595;51.418;7.572;2022-08-25T07:19:22;7.25;;;4.63;;
45887;SDS011;31595;51.418;7.572;2022-08-25T07:21:50;7.78;;;4.50;;
45887;SDS011;31595;51.418;7.572;2022-08-25T07:24:18;5.47;;;4.20;;
45887;SDS011;31595;51.418;7.572;2022-08-25T07:26:46;7.10;;;4.25;;
45887;SDS011;31595;51.418;7.572;2022-08-25T07:29:16;7.75;;;4.72;;
45887;SDS011;31595;51.418;7.572;2022-08-25T07:31:46;4.47;;;4.07;;
45887;SDS011;31595;51.418;7.572;2022-08-25T07:34:14;9.02;;;5.20;;
45887;SDS011;31595;51.418;7.572;2022-08-25T07:36:58;7.43;;;4.28;;
45887;SDS011;31595;51.418;7.572;2022-08-25T07:39:29;5.88;;;3.75;;
45887;SDS011;31595;51.418;7.572;2022-08-25T07:42:00;4.28;;;3.85;;
45887;SDS011;31595;51.418;7.572;2022-08-25T07:44:30;6.50;;;4.65;;
45887;SDS011;31595;51.418;7.572;2022-08-25T07:46:59;7.13;;;4.15;;
45887;SDS011;31595;51.418;7.572;2022-08-25T07:49:26;5.93;;;4.25;;
45887;SDS011;31595;51.418;7.572;2022-08-25T07:51:59;4.53;;;4.13;;
45887;SDS011;31595;51.418;7.572;2022-08-25T07:54:26;5.32;;;3.78;;
45887;SDS011;31595;51.418;7.572;2022-08-25T07:56:54;4.38;;;3.97;;
45887;SDS011;31595;51.418;7.572;2022-08-25T07:59:22;5.77;;;3.80;;
45887;SDS011;31595;51.418;7.572;2022-08-25T08:01:49;4.47;;;4.00;;
45887;SDS011;31595;51.418;7.572;2022-08-25T08:04:18;5.27;;;3.60;;
45887;SDS011;31595;51.418;7.572;2022-08-25T08:06:45;5.32;;;4.25;;
45887;SDS011;31595;51.418;7.572;2022-08-25T08:09:12;4.57;;;4.10;;
45887;SDS011;31595;51.418;7.572;2022-08-25T08:11:40;4.32;;;3.92;;
45887;SDS011;31595;51.418;7.572;2022-08-25T08:14:09;5.28;;;3.72;;
45887;SDS011;31595;51.418;7.572;2022-08-25T08:16:38;4.90;;;3.85;;
45887;SDS011;31595;51.418;7.572;2022-08-25T08:19:05;6.40;;;3.72;;
45887;SDS011;31595;51.418;7.572;2022-08-25T08:21:34;5.55;;;3.42;;
45887;SDS011;31595;51.418;7.572;2022-08-25T08:24:02;5.00;;;3.40;;
45887;SDS011;31595;51.418;7.572;2022-08-25T08:26:30;3.90;;;3.35;;
45887;SDS011;31595;51.418;7.572;2022-08-25T08:29:00;4.75;;;3.40;;
45887;SDS011;31595;51.418;7.572;2022-08-25T08:31:28;4.60;;;3.38;;
45887;SDS011;31595;51.418;7.572;2022-08-25T08:33:55;4.55;;;3.80;;
45887;SDS011;31595;51.418;7.572;2022-08-25T08:36:38;4.07;;;3.50;;
45887;SDS011;31595;51.418;7.572;2022-08-25T08:39:05;4.97;;;3.53;;
45887;SDS011;31595;51.418;7.572;2022-08-25T08:41:37;4.72;;;3.30;;
45887;SDS011;31595;51.418;7.572;2022-08-25T08:44:33;3.50;;;3.20;;
45887;SDS011;31595;51.418;7.572;2022-08-25T08:47:10;3.75;;;3.13;;
45887;SDS011;31595;51.418;7.572;2022-08-25T08:49:48;4.20;;;3.80;;
45887;SDS011;31595;51.418;7.572;2022-08-25T08:52:23;4.75;;;3.63;;
45887;SDS011;31595;51.418;7.572;2022-08-25T08:55:04;5.03;;;3.47;;
45887;SDS011;31595;51.418;7.572;2022-08-25T08:57:41;4.07;;;3.20;;
45887;SDS011;31595;51.418;7.572;2022-08-25T09:00:13;3.97;;;3.58;;
45887;SDS011;31595;51.418;7.572;2022-08-25T09:02:49;4.28;;;3.88;;
45887;SDS011;31595;51.418;7.572;2022-08-25T09:05:21;4.97;;;3.42;;
45887;SDS011;31595;51.418;7.572;2022-08-25T09:08:00;4.78;;;3.35;;
45887;SDS011;31595;51.418;7.572;2022-08-25T09:10:33;3.88;;;3.30;;
45887;SDS011;31595;51.418;7.572;2022-08-25T09:13:11;4.18;;;3.78;;
45887;SDS011;31595;51.418;7.572;2022-08-25T09:15:47;4.07;;;3.67;;
45887;SDS011;31595;51.418;7.572;2022-08-25T09:18:40;3.75;;;3.28;;
45887;SDS011;31595;51.418;7.572;2022-08-25T09:21:18;5.57;;;3.60;;
45887;SDS011;31595;51.418;7.572;2022-08-25T09:26:49;4.22;;;3.83;;
45887;SDS011;31595;51.418;7.572;2022-08-25T09:29:24;4.40;;;4.00;;
45887;SDS011;31595;51.418;7.572;2022-08-25T09:32:11;3.83;;;3.53;;
45887;SDS011;31595;51.418;7.572;2022-08-25T09:34:43;3.63;;;3.33;;
45887;SDS011;31595;51.418;7.572;2022-08-25T09:37:11;3.80;;;3.50;;
45887;SDS011;31595;51.418;7.572;2022-08-25T09:39:39;3.67;;;3.38;;
45887;SDS011;31595;51.418;7.572;2022-08-25T09:42:07;3.50;;;3.20;;
45887;SDS011;31595;51.418;7.572;2022-08-25T09:44:39;4.30;;;3.40;;
45887;SDS011;31595;51.418;7.572;2022-08-25T09:47:12;4.28;;;3.47;;
45887;SDS011;31595;51.418;7.572;2022-08-25T09:49:48;4.18;;;3.40;;
45887;SDS011;31595;51.418;7.572;2022-08-25T09:52:21;5.80;;;2.78;;
45887;SDS011;31595;51.418;7.572;2022-08-25T09:54:53;4.63;;;3.50;;
45887;SDS011;31595;51.418;7.572;2022-08-25T09:57:26;3.92;;;3.58;;
45887;SDS011;31595;51.418;7.572;2022-08-25T10:02:41;4.05;;;3.03;;
45887;SDS011;31595;51.418;7.572;2022-08-25T10:05:19;4.22;;;3.13;;
45887;SDS011;31595;51.418;7.572;2022-08-25T10:07:49;3.92;;;3.58;;
45887;SDS011;31595;51.418;7.572;2022-08-25T10:10:28;3.63;;;3.33;;
45887;SDS011;31595;51.418;7.572;2022-08-25T10:12:57;4.30;;;3.28;;
45887;SDS011;31595;51.418;7.572;2022-08-25T10:15:27;3.50;;;3.20;;
45887;SDS011;31595;51.418;7.572;2022-08-25T10:18:15;3.78;;;3.45;;
45887;SDS011;31595;51.418;7.572;2022-08-25T10:23:40;4.15;;;3.25;;
45887;SDS011;31595;51.418;7.572;2022-08-25T10:26:17;3.42;;;3.13;;
45887;SDS011;31595;51.418;7.572;2022-08-25T10:28:52;3.45;;;3.15;;
45887;SDS011;31595;51.418;7.572;2022-08-25T10:31:31;3.42;;;3.13;;
45887;SDS011;31595;51.418;7.572;2022-08-25T10:34:06;3.75;;;3.45;;
45887;SDS011;31595;51.418;7.572;2022-08-25T10:36:46;3.63;;;2.97;;
45887;SDS011;31595;51.418;7.572;2022-08-25T10:39:27;3.33;;;2.95;;
45887;SDS011;31595;51.418;7.572;2022-08-25T10:42:08;3.50;;;3.20;;
45887;SDS011;31595;51.418;7.572;2022-08-25T10:44:59;3.58;;;3.28;;
45887;SDS011;31595;51.418;7.572;2022-08-25T10:47:58;3.80;;;3.40;;
45887;SDS011;31595;51.418;7.572;2022-08-25T10:50:45;6.78;;;3.80;;
45887;SDS011;31595;51.418;7.572;2022-08-25T10:53:24;4.03;;;3.45;;
45887;SDS011;31595;51.418;7.572;2022-08-25T10:55:59;3.63;;;3.33;;
45887;SDS011;31595;51.418;7.572;2022-08-25T10:58:39;3.80;;;3.05;;
45887;SDS011;31595;51.418;7.572;2022-08-25T11:01:23;4.18;;;3.50;;
45887;SDS011;31595;51.418;7.572;2022-08-25T11:04:02;4.38;;;3.50;;
45887;SDS011;31595;51.418;7.572;2022-08-25T11:06:35;4.53;;;3.40;;
45887;SDS011;31595;51.418;7.572;2022-08-25T11:09:09;5.03;;;3.65;;
45887;SDS011;31595;51.418;7.572;2022-08-25T11:11:44;4.25;;;3.60;;
45887;SDS011;31595;51.418;7.572;2022-08-25T11:14:19;3.72;;;3.42;;
45887;SDS011;31595;51.418;7.572;2022-08-25T11:16:50;3.92;;;3.53;;
45887;SDS011;31595;51.418;7.572;2022-08-25T11:19:21;3.58;;;3.28;;
45887;SDS011;31595;51.418;7.572;2022-08-25T11:21:54;4.00;;;3.60;;
45887;SDS011;31595;51.418;7.572;2022-08-25T11:24:35;3.97;;;3.67;;
45887;SDS011;31595;51.418;7.572;2022-08-25T11:27:10;4.82;;;3.53;;
45887;SDS011;31595;51.418;7.572;2022-08-25T11:29:47;3.70;;;3.40;;
45887;SDS011;31595;51.418;7.572;2022-08-25T11:32:22;6.90;;;3.20;;
45887;SDS011;31595;51.418;7.572;2022-08-25T11:34:50;3.40;;;3.10;;
45887;SDS011;31595;51.418;7.572;2022-08-25T11:37:20;6.32;;;3.50;;
45887;SDS011;31595;51.418;7.572;2022-08-25T11:42:51;5.10;;;3.67;;
45887;SDS011;31595;51.418;7.572;2022-08-25T11:45:42;4.00;;;3.60;;
45887;SDS011;31595;51.418;7.572;2022-08-25T11:48:22;4.18;;;3.22;;
45887;SDS011;31595;51.418;7.572;2022-08-25T11:50:59;5.40;;;3.47;;
45887;SDS011;31595;51.418;7.572;2022-08-25T11:53:30;2.97;;;2.67;;
45887;SDS011;31595;51.418;7.572;2022-08-25T11:56:00;5.30;;;3.20;;
45887;SDS011;31595;51.418;7.572;2022-08-25T11:58:32;4.05;;;3.45;;
45887;SDS011;31595;51.418;7.572;2022-08-25T12:01:07;4.35;;;3.30;;
45887;SDS011;31595;51.418;7.572;2022-08-25T12:03:50;5.07;;;3.45;;
45887;SDS011;31595;51.418;7.572;2022-08-25T12:06:22;3.85;;;2.95;;
45887;SDS011;31595;51.418;7.572;2022-08-25T12:11:54;3.58;;;3.17;;
45887;SDS011;31595;51.418;7.572;2022-08-25T12:17:19;3.58;;;2.55;;
45887;SDS011;31595;51.418;7.572;2022-08-25T12:19:54;8.73;;;3.30;;
45887;SDS011;31595;51.418;7.572;2022-08-25T12:28:28;8.10;;;3.30;;
45887;SDS011;31595;51.418;7.572;2022-08-25T12:31:08;3.50;;;3.20;;
45887;SDS011;31595;51.418;7.572;2022-08-25T12:33:55;3.97;;;3.00;;
45887;SDS011;31595;51.418;7.572;2022-08-25T12:36:32;3.83;;;2.78;;
45887;SDS011;31595;51.418;7.572;2022-08-25T12:39:16;4.57;;;3.20;;
45887;SDS011;31595;51.418;7.572;2022-08-25T12:41:53;7.80;;;3.38;;
45887;SDS011;31595;51.418;7.572;2022-08-25T12:44:34;3.72;;;2.97;;
45887;SDS011;31595;51.418;7.572;2022-08-25T12:47:06;3.20;;;2.90;;
45887;SDS011;31595;51.418;7.572;2022-08-25T12:49:41;3.83;;;2.75;;
45887;SDS011;31595;51.418;7.572;2022-08-25T12:52:13;5.68;;;3.08;;
45887;SDS011;31595;51.418;7.572;2022-08-25T12:54:46;4.75;;;2.90;;
45887;SDS011;31595;51.418;7.572;2022-08-25T12:57:30;3.42;;;2.38;;
45887;SDS011;31595;51.418;7.572;2022-08-25T13:00:10;5.97;;;2.80;;
45887;SDS011;31595;51.418;7.572;2022-08-25T13:02:52;3.35;;;3.05;;
45887;SDS011;31595;51.418;7.572;2022-08-25T13:08:53;3.17;;;2.63;;
45887;SDS011;31595;51.418;7.572;2022-08-25T13:11:43;3.08;;;2.78;;
45887;SDS011;31595;51.418;7.572;2022-08-25T13:14:15;6.32;;;3.42;;
45887;SDS011;31595;51.418;7.572;2022-08-25T13:16:52;5.10;;;2.80;;
45887;SDS011;31595;51.418;7.572;2022-08-25T13:19:22;6.47;;;2.90;;
45887;SDS011;31595;51.418;7.572;2022-08-25T13:21:51;4.10;;;3.00;;
45887;SDS011;31595;51.418;7.572;2022-08-25T13:24:23;3.72;;;2.90;;
45887;SDS011;31595;51.418;7.572;2022-08-25T13:26:53;3.28;;;2.50;;
45887;SDS011;31595;51.418;7.572;2022-08-25T13:29:23;4.10;;;2.58;;
45887;SDS011;31595;51.418;7.572;2022-08-25T13:31:53;4.82;;;2.78;;
45887;SDS011;31595;51.418;7.572;2022-08-25T13:34:23;4.28;;;2.72;;
45887;SDS011;31595;51.418;7.572;2022-08-25T13:36:52;3.60;;;2.70;;
45887;SDS011;31595;51.418;7.572;2022-08-25T13:39:38;5.93;;;2.80;;
45887;SDS011;31595;51.418;7.572;2022-08-25T13:42:06;3.78;;;3.10;;
45887;SDS011;31595;51.418;7.572;2022-08-25T13:44:39;6.65;;;2.80;;
45887;SDS011;31595;51.418;7.572;2022-08-25T13:47:08;7.43;;;3.42;;
45887;SDS011;31595;51.418;7.572;2022-08-25T13:49:37;3.10;;;2.78;;
45887;SDS011;31595;51.418;7.572;2022-08-25T13:52:07;5.32;;;2.90;;
45887;SDS011;31595;51.418;7.572;2022-08-25T13:54:46;5.13;;;2.80;;
45887;SDS011;31595;51.418;7.572;2022-08-25T13:57:16;9.50;;;3.13;;
45887;SDS011;31595;51.418;7.572;2022-08-25T13:59:49;4.40;;;2.78;;
45887;SDS011;31595;51.418;7.572;2022-08-25T14:05:08;3.80;;;3.47;;
45887;SDS011;31595;51.418;7.572;2022-08-25T14:07:36;3.63;;;3.05;;
45887;SDS011;31595;51.418;7.572;2022-08-25T14:12:35;5.75;;;3.00;;
45887;SDS011;31595;51.418;7.572;2022-08-25T14:15:10;4.05;;;3.00;;
45887;SDS011;31595;51.418;7.572;2022-08-25T14:18:00;6.32;;;3.03;;
45887;SDS011;31595;51.418;7.572;2022-08-25T14:20:30;3.55;;;3.00;;
45887;SDS011;31595;51.418;7.572;2022-08-25T14:23:03;4.65;;;3.10;;
45887;SDS011;31595;51.418;7.572;2022-08-25T14:25:33;4.47;;;2.75;;
45887;SDS011;31595;51.418;7.572;2022-08-25T14:28:02;3.20;;;2.90;;
45887;SDS011;31595;51.418;7.572;2022-08-25T14:30:32;25.45;;;5.50;;
45887;SDS011;31595;51.418;7.572;2022-08-25T14:33:01;4.13;;;2.90;;
45887;SDS011;31595;51.418;7.572;2022-08-25T14:35:30;5.40;;;3.15;;
45887;SDS011;31595;51.418;7.572;2022-08-25T14:37:58;4.43;;;3.40;;
45887;SDS011;31595;51.418;7.572;2022-08-25T14:40:28;3.63;;;3.17;;
45887;SDS011;31595;51.418;7.572;2022-08-25T14:45:24;5.68;;;3.00;;
45887;SDS011;31595;51.418;7.572;2022-08-25T14:47:51;4.55;;;3.17;;
45887;SDS011;31595;51.418;7.572;2022-08-25T14:50:20;3.70;;;2.80;;
45887;SDS011;31595;51.418;7.572;2022-08-25T14:52:48;4.18;;;2.83;;
45887;SDS011;31595;51.418;7.572;2022-08-25T14:55:15;3.13;;;2.83;;
45887;SDS011;31595;51.418;7.572;2022-08-25T14:57:43;3.60;;;3.25;;
45887;SDS011;31595;51.418;7.572;2022-08-25T15:00:12;6.57;;;3.40;;
45887;SDS011;31595;51.418;7.572;2022-08-25T15:02:40;4.28;;;3.20;;
45887;SDS011;31595;51.418;7.572;2022-08-25T15:05:09;3.88;;;2.92;;
45887;SDS011;31595;51.418;7.572;2022-08-25T15:07:38;3.30;;;2.83;;
45887;SDS011;31595;51.418;7.572;2022-08-25T15:10:22;5.20;;;3.28;;
45887;SDS011;31595;51.418;7.572;2022-08-25T15:12:50;3.28;;;2.97;;
45887;SDS011;31595;51.418;7.572;2022-08-25T15:15:19;3.55;;;3.03;;
45887;SDS011;31595;51.418;7.572;2022-08-25T15:17:46;3.35;;;3.05;;
45887;SDS011;31595;51.418;7.572;2022-08-25T15:20:14;4.85;;;3.53;;
45887;SDS011;31595;51.418;7.572;2022-08-25T15:22:41;4.15;;;3.55;;
45887;SDS011;31595;51.418;7.572;2022-08-25T15:25:10;4.25;;;3.15;;
45887;SDS011;31595;51.418;7.572;2022-08-25T15:27:37;5.28;;;3.50;;
45887;SDS011;31595;51.418;7.572;2022-08-25T15:30:05;4.07;;;3.67;;
45887;SDS011;31595;51.418;7.572;2022-08-25T15:32:34;5.57;;;2.80;;
45887;SDS011;31595;51.418;7.572;2022-08-25T15:35:02;3.47;;;2.75;;
45887;SDS011;31595;51.418;7.572;2022-08-25T15:37:29;3.67;;;2.92;;
45887;SDS011;31595;51.418;7.572;2022-08-25T15:39:57;3.72;;;3.00;;
45887;SDS011;31595;51.418;7.572;2022-08-25T15:42:24;4.15;;;3.30;;
45887;SDS011;31595;51.418;7.572;2022-08-25T15:44:52;5.78;;;3.10;;
45887;SDS011;31595;51.418;7.572;2022-08-25T15:47:21;4.20;;;3.10;;
45887;SDS011;31595;51.418;7.572;2022-08-25T15:49:51;3.20;;;2.90;;
45887;SDS011;31595;51.418;7.572;2022-08-25T15:52:28;4.75;;;2.83;;